createdAt,value
2019-05-07T00:00:45.247Z,80.50
2019-05-07T00:03:14.944Z,79.50
2019-05-07T00:05:44.670Z,79.70
2019-05-07T00:08:14.368Z,79.60
2019-05-07T00:10:43.979Z,79.40
2019-05-07T00:13:13.400Z,79.70
2019-05-07T00:15:43.097Z,79.20
2019-05-07T00:18:12.914Z,79.80
2019-05-07T00:20:42.713Z,79.30
2019-05-07T00:23:12.516Z,79.00
2019-05-07T00:25:42.302Z,79.60
2019-05-07T00:28:12.357Z,79.60
2019-05-07T00:30:42.646Z,79.70
2019-05-07T00:33:13.136Z,79.70
2019-05-07T00:35:44.562Z,79.20
2019-05-07T00:38:18.877Z,78.80
2019-05-07T00:40:51.994Z,78.70
2019-05-07T00:43:22.869Z,79.20
2019-05-07T00:45:56.862Z,78.50
2019-05-07T00:48:25.513Z,78.70
2019-05-07T00:50:56.460Z,79.10
2019-05-07T00:53:26.148Z,77.90
2019-05-07T00:55:55.321Z,78.00
2019-05-07T00:58:26.902Z,77.80
2019-05-07T01:00:56.411Z,77.90
2019-05-07T01:03:26.230Z,77.30
2019-05-07T01:05:55.937Z,77.90
2019-05-07T01:08:25.749Z,78.10
2019-05-07T01:10:55.350Z,77.30
2019-05-07T01:13:25.170Z,77.40
2019-05-07T01:15:54.981Z,77.90
2019-05-07T01:18:24.785Z,77.40
2019-05-07T01:20:54.406Z,77.20
2019-05-07T01:23:24.048Z,77.80
2019-05-07T01:25:53.455Z,77.00
2019-05-07T01:28:23.113Z,77.30
2019-05-07T01:30:53.087Z,77.60
2019-05-07T01:33:24.026Z,77.20
2019-05-07T01:36:07.303Z,77.70
2019-05-07T01:38:37.110Z,77.90
2019-05-07T01:41:06.390Z,77.30
2019-05-07T01:43:35.761Z,77.90
2019-05-07T01:46:05.422Z,77.50
2019-05-07T01:48:34.677Z,77.90
2019-05-07T01:51:04.081Z,77.30
2019-05-07T01:53:33.345Z,77.00
2019-05-07T01:56:03.428Z,76.60
2019-05-07T01:58:33.440Z,76.70
2019-05-07T02:01:03.283Z,76.80
2019-05-07T02:03:42.004Z,76.60
2019-05-07T02:06:16.514Z,75.90
2019-05-07T02:08:52.913Z,76.40
2019-05-07T02:11:26.584Z,75.60
2019-05-07T02:13:57.071Z,75.20
2019-05-07T02:16:26.830Z,75.90
2019-05-07T02:18:56.310Z,75.90
2019-05-07T02:21:25.918Z,76.20
2019-05-07T02:23:55.646Z,75.40
2019-05-07T02:26:25.126Z,75.00
2019-05-07T02:28:54.467Z,74.80
2019-05-07T02:31:23.870Z,74.40
2019-05-07T02:33:54.290Z,74.50
2019-05-07T02:36:24.195Z,74.50
2019-05-07T02:39:03.775Z,73.50
2019-05-07T02:41:36.323Z,74.00
2019-05-07T02:44:06.125Z,73.90
2019-05-07T02:46:55.915Z,73.30
2019-05-07T02:49:26.957Z,73.00
2019-05-07T02:51:57.942Z,73.10
2019-05-07T02:54:29.337Z,72.90
2019-05-07T02:56:58.724Z,71.90
2019-05-07T02:59:28.449Z,72.30
2019-05-07T03:01:58.070Z,73.10
2019-05-07T03:04:27.377Z,72.60
2019-05-07T03:06:57.994Z,71.60
2019-05-07T03:09:27.702Z,71.80
2019-05-07T03:11:57.517Z,72.30
2019-05-07T03:14:26.934Z,72.10
2019-05-07T03:16:56.636Z,72.20
2019-05-07T03:19:26.861Z,71.40
2019-05-07T03:21:56.664Z,70.60
2019-05-07T03:24:39.736Z,70.50
2019-05-07T03:27:09.002Z,70.70
2019-05-07T03:29:39.940Z,70.00
2019-05-07T03:32:29.191Z,70.10
2019-05-07T03:35:05.884Z,69.90
2019-05-07T03:37:36.148Z,70.30
2019-05-07T03:40:06.712Z,70.40
2019-05-07T03:42:36.438Z,69.60
2019-05-07T03:45:13.951Z,68.90
2019-05-07T03:47:48.237Z,68.90
2019-05-07T03:50:17.481Z,68.90
2019-05-07T03:52:47.152Z,68.20
2019-05-07T03:55:16.521Z,68.40
2019-05-07T03:57:46.155Z,67.90
2019-05-07T04:00:15.875Z,68.00
2019-05-07T04:02:45.681Z,67.90
2019-05-07T04:05:15.393Z,68.50
2019-05-07T04:07:45.097Z,67.70
2019-05-07T04:10:15.459Z,67.80
2019-05-07T04:12:44.882Z,68.10
2019-05-07T04:15:18.806Z,67.80
2019-05-07T04:17:46.100Z,68.60
2019-05-07T04:20:15.910Z,67.80
2019-05-07T04:22:45.289Z,68.50
2019-05-07T04:25:16.661Z,67.10
2019-05-07T04:27:52.699Z,68.50
2019-05-07T04:30:23.609Z,68.30
2019-05-07T04:32:55.002Z,68.10
2019-05-07T04:35:29.418Z,67.30
2019-05-07T04:38:02.145Z,67.10
2019-05-07T04:40:33.644Z,67.80
2019-05-07T04:43:02.712Z,68.50
2019-05-07T04:45:33.692Z,67.90
2019-05-07T04:48:03.706Z,68.20
2019-05-07T04:50:43.104Z,67.30
2019-05-07T04:53:06.304Z,68.50
2019-05-07T04:55:36.116Z,67.50
2019-05-07T04:58:08.878Z,67.30
2019-05-07T05:00:36.809Z,66.90
2019-05-07T05:03:26.334Z,68.00
2019-05-07T05:05:56.190Z,67.40
2019-05-07T05:08:25.963Z,66.10
2019-05-07T05:10:55.812Z,66.60
2019-05-07T05:13:25.591Z,67.20
2019-05-07T05:15:55.202Z,67.30
2019-05-07T05:18:24.805Z,67.10
2019-05-07T05:20:55.793Z,67.30
2019-05-07T05:23:35.998Z,66.90
2019-05-07T05:26:05.808Z,67.50
2019-05-07T05:28:35.422Z,67.50
2019-05-07T05:31:06.736Z,66.30
2019-05-07T05:33:36.468Z,66.50
2019-05-07T05:36:06.285Z,66.70
2019-05-07T05:38:35.893Z,66.60
2019-05-07T05:41:05.506Z,66.00
2019-05-07T05:43:36.949Z,65.70
2019-05-07T05:46:08.053Z,65.20
2019-05-07T05:48:37.516Z,63.90
2019-05-07T05:51:24.211Z,65.10
2019-05-07T05:53:58.425Z,65.90
2019-05-07T05:56:29.784Z,63.60
2019-05-07T05:59:24.171Z,60.80
2019-05-07T06:02:03.383Z,60.40
2019-05-07T06:04:43.039Z,61.10
2019-05-07T06:07:22.727Z,60.10
2019-05-07T06:09:56.894Z,60.90
2019-05-07T06:12:43.904Z,59.80
2019-05-07T06:15:16.902Z,60.30
2019-05-07T06:18:17.923Z,59.60
2019-05-07T06:20:47.497Z,59.60
2019-05-07T06:23:22.463Z,61.40
2019-05-07T06:25:52.558Z,61.00
2019-05-07T06:28:22.479Z,60.10
2019-05-07T06:30:52.894Z,60.00
2019-05-07T06:33:23.120Z,60.00
2019-05-07T06:35:52.584Z,58.80
2019-05-07T06:38:23.310Z,59.30
2019-05-07T06:41:06.630Z,59.60
2019-05-07T06:43:46.685Z,59.30
2019-05-07T06:46:16.401Z,59.30
2019-05-07T06:48:46.426Z,60.50
2019-05-07T06:51:17.679Z,58.90
2019-05-07T06:53:47.487Z,57.60
2019-05-07T06:56:17.280Z,56.40
2019-05-07T06:59:02.216Z,55.70
2019-05-07T07:01:33.809Z,54.80
2019-05-07T07:04:14.374Z,55.50
2019-05-07T07:06:48.593Z,55.40
2019-05-07T07:09:22.110Z,55.90
2019-05-07T07:12:08.946Z,54.60
2019-05-07T07:14:38.304Z,54.60
2019-05-07T07:17:08.014Z,52.90
2019-05-07T07:19:37.324Z,53.90
2019-05-07T07:22:07.027Z,53.00
2019-05-07T07:24:37.653Z,51.70
2019-05-07T07:27:07.361Z,51.50
2019-05-07T07:29:38.707Z,52.60
2019-05-07T07:32:12.655Z,50.70
2019-05-07T07:34:43.347Z,51.20
2019-05-07T07:37:17.371Z,50.90
2019-05-07T07:39:47.069Z,50.30
2019-05-07T07:42:16.682Z,50.70
2019-05-07T07:44:46.758Z,47.20
2019-05-07T07:47:16.410Z,47.10
2019-05-07T07:49:46.500Z,47.80
2019-05-07T07:52:16.234Z,48.70
2019-05-07T07:54:46.049Z,47.00
2019-05-07T07:57:26.616Z,46.70
2019-05-07T07:59:57.640Z,46.60
2019-05-07T08:02:29.002Z,47.70
2019-05-07T08:04:58.717Z,49.80
2019-05-07T08:07:28.417Z,50.30
2019-05-07T08:09:58.233Z,47.70
2019-05-07T08:12:28.063Z,45.60
2019-05-07T08:15:13.288Z,45.10
2019-05-07T08:17:29.010Z,45.60
2019-05-07T08:19:58.825Z,45.00
2019-05-07T08:22:28.435Z,46.30
2019-05-07T08:24:58.238Z,45.80
2019-05-07T08:27:28.965Z,46.40
2019-05-07T08:29:58.284Z,46.60
2019-05-07T08:32:29.240Z,46.60
2019-05-07T08:35:14.332Z,45.30
2019-05-07T08:37:44.001Z,45.90
2019-05-07T08:40:13.819Z,45.60
2019-05-07T08:42:43.611Z,46.20
2019-05-07T08:45:32.642Z,45.30
2019-05-07T08:48:12.477Z,44.70
2019-05-07T08:50:41.947Z,45.40
2019-05-07T08:53:13.255Z,45.40
2019-05-07T08:55:43.018Z,43.50
2019-05-07T08:58:12.801Z,44.40
2019-05-07T09:00:42.614Z,42.90
2019-05-07T09:03:20.117Z,44.50
2019-05-07T09:05:43.669Z,43.80
2019-05-07T09:08:13.081Z,44.10
2019-05-07T09:10:42.332Z,43.70
2019-05-07T09:13:12.595Z,43.80
2019-05-07T09:15:42.586Z,43.90
2019-05-07T09:18:12.459Z,44.90
2019-05-07T09:20:42.578Z,43.20
2019-05-07T09:23:12.384Z,43.90
2019-05-07T09:25:46.980Z,44.70
2019-05-07T09:28:18.647Z,44.60
2019-05-07T09:30:52.272Z,44.10
2019-05-07T09:33:29.221Z,43.30
2019-05-07T09:35:58.928Z,42.80
2019-05-07T09:38:28.205Z,41.00
2019-05-07T09:40:58.345Z,43.20
2019-05-07T09:43:27.953Z,45.40
2019-05-07T09:45:57.241Z,42.10
2019-05-07T09:48:27.068Z,42.20
2019-05-07T09:50:56.682Z,41.20
2019-05-07T09:53:26.292Z,41.60
2019-05-07T09:55:56.201Z,40.50
2019-05-07T09:58:35.672Z,41.00
2019-05-07T10:00:57.461Z,42.10
2019-05-07T10:03:27.174Z,43.00
2019-05-07T10:05:57.002Z,40.60
2019-05-07T10:08:26.697Z,39.20
2019-05-07T10:10:56.510Z,38.50
2019-05-07T10:13:30.417Z,39.30
2019-05-07T10:15:59.429Z,39.00
2019-05-07T10:18:28.797Z,39.60
2019-05-07T10:20:58.433Z,40.30
2019-05-07T10:23:28.172Z,41.80
2019-05-07T10:25:58.042Z,42.20
2019-05-07T10:28:27.662Z,39.00
2019-05-07T10:30:57.154Z,40.80
2019-05-07T10:33:27.586Z,39.00
2019-05-07T10:35:58.067Z,39.40
2019-05-07T10:38:27.828Z,39.70
2019-05-07T10:40:57.634Z,41.90
2019-05-07T10:43:27.451Z,41.50
2019-05-07T10:46:14.895Z,41.40
2019-05-07T10:48:48.717Z,40.90
2019-05-07T10:51:18.409Z,39.80
2019-05-07T10:53:48.201Z,42.00
2019-05-07T10:56:18.014Z,41.70
2019-05-07T10:58:48.846Z,42.50
2019-05-07T11:01:22.281Z,42.00
2019-05-07T11:03:51.798Z,41.30
2019-05-07T11:06:22.161Z,41.00
2019-05-07T11:08:52.111Z,41.00
2019-05-07T11:11:21.911Z,41.90
2019-05-07T11:13:55.513Z,42.80
2019-05-07T11:16:24.708Z,42.00
2019-05-07T11:18:54.520Z,40.40
2019-05-07T11:21:32.961Z,41.40
2019-05-07T11:24:03.233Z,41.30
2019-05-07T11:26:33.280Z,41.40
2019-05-07T11:29:03.094Z,40.50
2019-05-07T11:31:33.235Z,40.50
2019-05-07T11:34:04.145Z,40.70
2019-05-07T11:36:34.431Z,41.40
2019-05-07T11:39:05.709Z,41.10
2019-05-07T11:41:46.686Z,39.70
2019-05-07T11:44:23.028Z,38.20
2019-05-07T11:47:12.285Z,40.20
2019-05-07T11:49:59.216Z,40.20
2019-05-07T11:52:35.186Z,39.50
2019-05-07T11:55:03.131Z,40.00
2019-05-07T11:57:32.987Z,39.60
2019-05-07T12:00:03.167Z,40.20
2019-05-07T12:02:32.807Z,39.50
2019-05-07T12:05:02.301Z,40.10
2019-05-07T12:07:32.774Z,38.80
2019-05-07T12:10:05.018Z,39.30
2019-05-07T12:12:34.826Z,39.40
2019-05-07T12:15:04.630Z,41.10
2019-05-07T12:17:35.266Z,41.80
2019-05-07T12:20:05.582Z,40.80
2019-05-07T12:22:52.165Z,40.60
2019-05-07T12:25:22.309Z,41.90
2019-05-07T12:27:52.739Z,40.50
2019-05-07T12:30:32.623Z,39.90
2019-05-07T12:33:22.469Z,40.30
2019-05-07T12:35:52.853Z,40.80
2019-05-07T12:38:22.610Z,40.40
2019-05-07T12:40:52.504Z,41.70
2019-05-07T12:43:21.924Z,40.90
2019-05-07T12:45:52.494Z,40.40
2019-05-07T12:48:22.262Z,41.30
2019-05-07T12:50:52.350Z,40.70
2019-05-07T12:53:31.454Z,40.40
2019-05-07T12:56:05.535Z,39.30
2019-05-07T12:58:35.242Z,38.30
2019-05-07T13:01:09.247Z,38.90
2019-05-07T13:03:42.654Z,38.60
2019-05-07T13:06:11.703Z,38.80
2019-05-07T13:08:42.014Z,39.30
2019-05-07T13:11:13.230Z,39.80
2019-05-07T13:13:43.020Z,40.10
2019-05-07T13:16:12.941Z,39.90
2019-05-07T13:18:42.650Z,41.70
2019-05-07T13:21:12.263Z,38.60
2019-05-07T13:23:42.256Z,38.20
2019-05-07T13:26:12.077Z,40.00
2019-05-07T13:28:41.991Z,40.00
2019-05-07T13:31:13.143Z,39.60
2019-05-07T13:33:42.566Z,40.00
2019-05-07T13:36:12.362Z,39.70
2019-05-07T13:38:59.776Z,40.60
2019-05-07T13:41:43.427Z,39.70
2019-05-07T13:44:31.781Z,41.70
2019-05-07T13:47:08.641Z,42.00
2019-05-07T13:49:38.249Z,41.30
2019-05-07T13:52:07.862Z,39.70
2019-05-07T13:54:37.664Z,38.80
2019-05-07T13:57:07.411Z,39.80
2019-05-07T13:59:37.194Z,40.10
2019-05-07T14:02:08.445Z,39.70
2019-05-07T14:04:38.249Z,39.30
2019-05-07T14:07:08.882Z,39.00
2019-05-07T14:09:38.488Z,40.10
2019-05-07T14:12:08.102Z,40.60
2019-05-07T14:14:38.641Z,38.70
2019-05-07T14:17:08.337Z,38.90
2019-05-07T14:19:37.835Z,41.40
2019-05-07T14:22:15.282Z,38.60
2019-05-07T14:24:39.016Z,39.00
2019-05-07T14:27:08.819Z,38.20
2019-05-07T14:29:39.670Z,39.30
2019-05-07T14:32:26.049Z,39.90
2019-05-07T14:35:03.544Z,40.10
2019-05-07T14:37:34.898Z,39.90
2019-05-07T14:40:06.327Z,38.10
2019-05-07T14:42:38.460Z,38.70
2019-05-07T14:45:08.526Z,38.90
2019-05-07T14:47:38.245Z,38.80
2019-05-07T14:50:07.976Z,38.90
2019-05-07T14:52:38.407Z,39.30
2019-05-07T14:55:08.190Z,38.70
2019-05-07T14:57:38.106Z,39.00
2019-05-07T15:00:08.530Z,41.50
2019-05-07T15:02:38.342Z,39.40
2019-05-07T15:05:08.166Z,39.60
2019-05-07T15:07:37.464Z,39.20
2019-05-07T15:10:07.470Z,38.40
2019-05-07T15:12:37.494Z,39.10
2019-05-07T15:15:07.249Z,38.40
2019-05-07T15:17:44.703Z,39.10
2019-05-07T15:20:14.510Z,38.10
2019-05-07T15:22:49.978Z,38.70
2019-05-07T15:25:22.536Z,39.90
2019-05-07T15:27:52.731Z,40.20
2019-05-07T15:30:23.685Z,39.80
2019-05-07T15:32:53.297Z,39.10
2019-05-07T15:35:22.914Z,39.80
2019-05-07T15:37:52.623Z,39.90
2019-05-07T15:40:22.637Z,39.80
2019-05-07T15:42:52.610Z,40.00
2019-05-07T15:45:22.065Z,40.30
2019-05-07T15:47:53.293Z,40.70
2019-05-07T15:50:24.250Z,41.60
2019-05-07T15:52:58.551Z,43.10
2019-05-07T15:55:27.961Z,41.70
2019-05-07T15:57:58.393Z,41.90
2019-05-07T16:00:35.877Z,41.60
2019-05-07T16:03:11.859Z,42.00
2019-05-07T16:05:42.450Z,41.90
2019-05-07T16:08:14.220Z,40.90
2019-05-07T16:10:44.852Z,41.50
2019-05-07T16:13:16.318Z,42.10
2019-05-07T16:15:46.009Z,41.90
2019-05-07T16:18:17.377Z,42.10
2019-05-07T16:20:47.178Z,41.30
2019-05-07T16:23:18.116Z,41.30
2019-05-07T16:25:48.242Z,41.40
2019-05-07T16:28:17.943Z,41.90
2019-05-07T16:30:47.662Z,42.30
2019-05-07T16:33:17.486Z,42.00
2019-05-07T16:35:47.188Z,42.50
2019-05-07T16:38:18.140Z,42.90
2019-05-07T16:40:47.762Z,42.50
2019-05-07T16:43:17.433Z,42.70
2019-05-07T16:45:47.268Z,43.20
2019-05-07T16:48:16.959Z,42.80
2019-05-07T16:50:46.660Z,43.10
2019-05-07T16:53:26.575Z,42.70
2019-05-07T16:55:47.312Z,42.90
2019-05-07T16:58:20.593Z,42.80
2019-05-07T17:00:52.772Z,42.90
2019-05-07T17:03:24.335Z,42.80
2019-05-07T17:05:53.717Z,42.80
2019-05-07T17:08:27.742Z,42.90
2019-05-07T17:10:57.449Z,43.70
2019-05-07T17:13:26.739Z,44.70
2019-05-07T17:15:57.518Z,44.90
2019-05-07T17:18:27.437Z,42.90
2019-05-07T17:20:57.218Z,42.90
2019-05-07T17:23:34.439Z,43.20
2019-05-07T17:25:58.383Z,43.00
2019-05-07T17:28:27.886Z,43.30
2019-05-07T17:30:58.521Z,43.60
2019-05-07T17:33:28.322Z,44.80
2019-05-07T17:35:58.137Z,44.60
2019-05-07T17:38:27.549Z,44.80
2019-05-07T17:41:09.916Z,44.70
2019-05-07T17:43:28.699Z,45.20
2019-05-07T17:45:58.307Z,44.90
2019-05-07T17:48:28.126Z,44.80
2019-05-07T17:51:08.384Z,44.90
2019-05-07T17:53:38.190Z,45.50
2019-05-07T17:56:08.139Z,45.60
2019-05-07T17:58:37.890Z,46.60
2019-05-07T18:01:07.643Z,45.60
2019-05-07T18:03:39.085Z,45.80
2019-05-07T18:06:09.206Z,45.90
2019-05-07T18:08:38.487Z,46.20
2019-05-07T18:11:20.224Z,46.30
2019-05-07T18:13:39.458Z,47.60
2019-05-07T18:16:12.153Z,47.00
2019-05-07T18:18:43.232Z,47.10
2019-05-07T18:21:12.995Z,47.70
2019-05-07T18:23:42.796Z,48.50
2019-05-07T18:26:26.337Z,48.50
2019-05-07T18:28:43.866Z,48.90
2019-05-07T18:31:15.834Z,48.70
2019-05-07T18:33:49.427Z,48.40
2019-05-07T18:36:19.351Z,49.30
2019-05-07T18:38:49.048Z,49.40
2019-05-07T18:41:18.867Z,48.90
2019-05-07T18:43:48.421Z,49.10
2019-05-07T18:46:18.294Z,49.40
2019-05-07T18:48:48.106Z,49.30
2019-05-07T18:51:17.914Z,49.00
2019-05-07T18:53:47.724Z,49.50
2019-05-07T18:56:17.133Z,49.60
2019-05-07T18:58:46.848Z,49.90
2019-05-07T19:01:18.485Z,50.60
2019-05-07T19:03:48.677Z,50.40
2019-05-07T19:06:18.012Z,50.80
2019-05-07T19:08:48.129Z,51.60
2019-05-07T19:11:17.941Z,51.80
2019-05-07T19:13:47.760Z,52.00
2019-05-07T19:16:17.567Z,51.90
2019-05-07T19:18:47.021Z,52.60
2019-05-07T19:21:16.802Z,52.70
2019-05-07T19:23:46.599Z,52.80
2019-05-07T19:26:16.042Z,52.90
2019-05-07T19:28:45.610Z,53.20
2019-05-07T19:31:15.936Z,53.70
2019-05-07T19:33:45.758Z,53.60
2019-05-07T19:36:15.139Z,53.90
2019-05-07T19:38:44.605Z,54.50
2019-05-07T19:41:14.253Z,54.10
2019-05-07T19:43:44.069Z,54.50
2019-05-07T19:46:13.850Z,55.10
2019-05-07T19:48:44.133Z,54.90
2019-05-07T19:51:13.920Z,54.50
2019-05-07T19:53:44.583Z,54.50
2019-05-07T19:56:19.326Z,54.40
2019-05-07T19:58:52.431Z,54.70
2019-05-07T20:01:24.012Z,54.80
2019-05-07T20:03:53.957Z,54.60
2019-05-07T20:06:25.043Z,54.40
2019-05-07T20:09:08.985Z,54.90
2019-05-07T20:11:32.001Z,54.90
2019-05-07T20:14:02.408Z,54.60
2019-05-07T20:16:32.903Z,54.90
2019-05-07T20:19:03.608Z,54.90
2019-05-07T20:21:36.145Z,55.80
2019-05-07T20:24:07.935Z,55.70
2019-05-07T20:26:38.028Z,55.30
2019-05-07T20:29:08.447Z,55.90
2019-05-07T20:31:38.474Z,55.60
2019-05-07T20:34:08.840Z,55.50
2019-05-07T20:36:38.665Z,55.50
2019-05-07T20:39:09.734Z,55.80
2019-05-07T20:41:42.429Z,55.90
2019-05-07T20:44:12.629Z,55.30
2019-05-07T20:46:42.487Z,55.70
2019-05-07T20:49:13.235Z,56.10
2019-05-07T20:51:43.109Z,55.70
2019-05-07T20:54:24.057Z,55.90
2019-05-07T20:57:07.917Z,57.70
2019-05-07T20:59:37.734Z,57.50
2019-05-07T21:02:07.547Z,57.20
2019-05-07T21:04:36.941Z,57.10
2019-05-07T21:07:06.757Z,57.10
2019-05-07T21:09:36.008Z,57.00
2019-05-07T21:12:05.434Z,57.50
2019-05-07T21:14:35.185Z,57.30
2019-05-07T21:17:04.977Z,57.80
2019-05-07T21:19:34.592Z,57.60
2019-05-07T21:22:04.413Z,58.00
2019-05-07T21:24:33.721Z,57.90
2019-05-07T21:27:03.429Z,58.40
2019-05-07T21:29:33.121Z,58.20
2019-05-07T21:32:03.273Z,58.70
2019-05-07T21:34:33.161Z,58.80
2019-05-07T21:37:03.385Z,59.40
2019-05-07T21:39:33.392Z,59.00
2019-05-07T21:42:03.107Z,58.30
2019-05-07T21:44:33.027Z,58.60
2019-05-07T21:47:03.937Z,59.30
2019-05-07T21:49:33.879Z,58.80
2019-05-07T21:52:03.586Z,58.70
2019-05-07T21:54:37.492Z,59.00
2019-05-07T21:57:08.847Z,59.10
2019-05-07T21:59:39.836Z,60.10
2019-05-07T22:02:16.970Z,59.30
2019-05-07T22:04:46.773Z,60.10
2019-05-07T22:07:16.381Z,60.10
2019-05-07T22:09:45.642Z,59.50
2019-05-07T22:12:15.033Z,60.60
2019-05-07T22:14:44.290Z,60.00
2019-05-07T22:17:13.998Z,61.00
2019-05-07T22:19:44.837Z,60.00
2019-05-07T22:22:14.447Z,59.70
2019-05-07T22:24:44.153Z,60.20
2019-05-07T22:27:13.873Z,60.50
2019-05-07T22:29:43.674Z,60.70
2019-05-07T22:32:22.379Z,60.60
2019-05-07T22:35:09.017Z,60.50
2019-05-07T22:37:40.349Z,60.80
2019-05-07T22:40:26.650Z,61.50
2019-05-07T22:42:57.893Z,62.40
2019-05-07T22:45:27.705Z,62.00
2019-05-07T22:47:57.425Z,62.50
2019-05-07T22:50:26.856Z,62.10
2019-05-07T22:52:56.560Z,63.80
2019-05-07T22:55:26.145Z,65.30
2019-05-07T22:58:06.492Z,65.40
2019-05-07T23:00:37.677Z,65.20
2019-05-07T23:03:07.462Z,63.30
2019-05-07T23:05:36.818Z,64.20
2019-05-07T23:08:06.467Z,65.90
2019-05-07T23:10:36.174Z,66.40
2019-05-07T23:13:05.451Z,66.10
2019-05-07T23:15:34.864Z,65.50
2019-05-07T23:18:04.686Z,65.50
2019-05-07T23:20:34.304Z,68.40
2019-05-07T23:23:04.006Z,66.70
2019-05-07T23:25:33.710Z,67.40
2019-05-07T23:28:05.244Z,67.20
2019-05-07T23:30:35.089Z,68.50
2019-05-07T23:33:04.721Z,68.20
2019-05-07T23:35:34.503Z,66.70
2019-05-07T23:38:04.318Z,69.20
2019-05-07T23:40:52.592Z,69.00
2019-05-07T23:43:23.299Z,68.90
2019-05-07T23:45:53.647Z,67.50
2019-05-07T23:48:22.957Z,68.70
2019-05-07T23:50:52.673Z,68.90
2019-05-07T23:53:22.609Z,68.70
2019-05-07T23:55:52.360Z,69.20
2019-05-07T23:58:22.995Z,69.60
